الصفحة الرئيسية
METAR-TAF:

METAR-TAF

مطار :

مطار كيب تاون

كيب تاون, جنوب أفريقيا

دائرة عرض: 33-59S, خط طول: 018-36E, ارتفاع: 42 متر

مراقبة الطقس الحالي

تاريخ ووقت الإصدار 29 دقيقة قبل الساعة 16:00UTC
ريح 14 عقدة من الجنوب/الجنوب الغربي
درجة الحرارة 20°درجة مئوية
الرطوبة 56%
ضغط 1020 hPa
الرؤية 10 كم أو أكثر
غيوم مفككة على ارتفاع 4000 قدم

METAR: FACT 161600Z 20014KT 9999 BKN040 20/11 Q1020 NOSIG

زمن: 18:29 (16:29 UTC)

توقعات

تاريخ ووقت الإصدار 6ساعات و 29 دقيقة قبل الساعة 10:00UTC
التوقعات صالحة من16 الساعة 12 UTC إلى 17 الساعة 18 UTC
ريح 10 عقدة من الجنوب/الجنوب الغربي
الرؤية 10 كم أو أكثر
غيوم متفرقة على ارتفاع 2500 قدم

TAF: FACT 161000Z 1612/1718 20010KT 9999 SCT025 TX24/1612Z TN13/1704Z

أرصاد الطقس والتوقعات من أكثر من 4000 مطار (تقارير الطقس للمطار METAR والتنبؤ بالطقس بالمطارTAF).

المحطات المتاحة هي النقط الصفراء والحمراء على الخريطة.

حرك المؤشر فوق النقطة لمعرفة اسم المحطة.

ثم انقر لمعرفة أرصاد وتوقعات الطقس.

لتغيير الخارطة: اضغط على الأزرار الخضراء مع رمز الصليب الأسود للتكبير. على الزر الأخضر مع شرطة للتصغير، أو على الأسهم الخضراء للخرائط المجاورة.


METAR-TAF: